PWSweather.com
Personal Weather Stations
Station Observations
IPORTUGA89
BarosaPT

BarosaPT

Lat: 39.754028, Lon: -8.843

Elevation: 98

Station Type: Davis Vp2

High Low Average
Temperature 58.5°F14.7°F 45.3°F7.4°F 51.3°F10.7°F
Dew Point 49.5°F9.7°F 43.2°F6.2°F 45.6°F7.6°F
Winds 12.1 mph -19.5 mph - Calm Calm 4.5 mph 7.2 mph
Wind Gusts 25.1 mph40.4 mph 2.0 mph3.2 mph 11.0 mph17.7 mph
Humidity 93% 63% 81%
Pressure 29.70 in1005.80 in 29.52 in999.70 in -
Precipitation 1.61 in40.90 in - -
Hour Temp Dew Point Humidity Winds Wind Gusts Pressure Precip Precip Rate Daily Precip Total
12:04 AM 49.8°F9.9°C 47.8°F8.8°C 93% 4.0 mph WSW6.4 kmh WSW 10.1 mph16.3 kmh 29.57 in1001.4 mb 0.01 in0.3 mm 0.15 in3.8 mm 0.01 in0.3 mm
12:14 AM 49.5°F9.7°C 47.3°F8.5°C 92% 4.0 mph WNW6.4 kmh WNW 10.1 mph16.3 kmh 29.57 in1001.4 mb 0.01 in0.3 mm 0.00 in0.0 mm 0.01 in0.3 mm
12:24 AM 48.9°F9.4°C 46.4°F8.0°C 91% 0.9 mph WSW1.4 kmh WSW 4.0 mph6.4 kmh 29.56 in1001.0 mb 0.01 in0.3 mm 0.00 in0.0 mm 0.01 in0.3 mm
12:35 AM 48.6°F9.2°C 46.0°F7.8°C 91% 0.9 mph WSW1.4 kmh WSW 4.0 mph6.4 kmh 29.56 in1001.0 mb 0.00 in0.0 mm 0.00 in0.0 mm 0.01 in0.3 mm
12:45 AM 47.8°F8.8°C 45.3°F7.4°C 91% 2.0 mph WSW3.2 kmh WSW 4.0 mph6.4 kmh 29.56 in1001.0 mb 0.00 in0.0 mm 0.00 in0.0 mm 0.01 in0.3 mm
12:55 AM 47.5°F8.6°C 45.0°F7.2°C 91% 0.9 mph WSW1.4 kmh WSW 2.0 mph3.2 kmh 29.56 in1001.0 mb 0.00 in0.0 mm 0.00 in0.0 mm 0.01 in0.3 mm
01:05 AM 47.1°F8.4°C 44.6°F7.0°C 91% Calm Calm 2.0 mph3.2 kmh 29.55 in1000.7 mb 0.00 in0.0 mm 0.00 in0.0 mm 0.01 in0.3 mm
01:15 AM 46.8°F8.2°C 44.6°F7.0°C 92% Calm Calm 2.9 mph4.7 kmh 29.55 in1000.7 mb 0.00 in0.0 mm 0.00 in0.0 mm 0.01 in0.3 mm
01:25 AM 46.4°F8.0°C 44.2°F6.8°C 92% 0.9 mph WSW1.4 kmh WSW 4.0 mph6.4 kmh 29.54 in1000.3 mb 0.00 in0.0 mm 0.00 in0.0 mm 0.01 in0.3 mm
01:35 AM 46.4°F8.0°C 44.2°F6.8°C 92% 2.0 mph SW3.2 kmh SW 10.1 mph16.3 kmh 29.54 in1000.3 mb 0.01 in0.3 mm 0.06 in1.5 mm 0.02 in0.5 mm
01:45 AM 46.4°F8.0°C 44.2°F6.8°C 92% 2.9 mph SW4.7 kmh SW 6.9 mph11.1 kmh 29.54 in1000.3 mb 0.01 in0.3 mm 0.00 in0.0 mm 0.02 in0.5 mm
01:55 AM 46.0°F7.8°C 43.9°F6.6°C 92% 2.0 mph S3.2 kmh S 6.9 mph11.1 kmh 29.53 in1000.0 mb 0.01 in0.3 mm 0.00 in0.0 mm 0.02 in0.5 mm
02:05 AM 45.9°F7.7°C 43.3°F6.3°C 91% 0.9 mph S1.4 kmh S 2.0 mph3.2 kmh 29.54 in1000.3 mb 0.01 in0.3 mm 0.00 in0.0 mm 0.02 in0.5 mm
02:15 AM 45.7°F7.6°C 43.5°F6.4°C 92% 0.9 mph S1.4 kmh S 4.0 mph6.4 kmh 29.53 in1000.0 mb 0.01 in0.3 mm 0.00 in0.0 mm 0.02 in0.5 mm
02:25 AM 45.3°F7.4°C 43.2°F6.2°C 92% 0.9 mph S1.4 kmh S 4.0 mph6.4 kmh 29.53 in1000.0 mb 0.01 in0.3 mm 0.00 in0.0 mm 0.02 in0.5 mm
02:35 AM 45.3°F7.4°C 43.2°F6.2°C 92% Calm Calm 2.9 mph4.7 kmh 29.53 in1000.0 mb 0.00 in0.0 mm 0.00 in0.0 mm 0.02 in0.5 mm
02:45 AM 45.5°F7.5°C 43.3°F6.3°C 92% Calm Calm 4.0 mph6.4 kmh 29.53 in1000.0 mb 0.00 in0.0 mm 0.00 in0.0 mm 0.02 in0.5 mm
02:55 AM 45.7°F7.6°C 43.7°F6.5°C 93% 0.9 mph WSW1.4 kmh WSW 12.1 mph19.5 kmh 29.53 in1000.0 mb 0.00 in0.0 mm 0.00 in0.0 mm 0.02 in0.5 mm
03:05 AM 47.5°F8.6°C 45.5°F7.5°C 93% 6.0 mph WSW9.7 kmh WSW 14.1 mph22.7 kmh 29.53 in1000.0 mb 0.00 in0.0 mm 0.00 in0.0 mm 0.02 in0.5 mm
03:15 AM 47.8°F8.8°C 45.3°F7.4°C 91% 4.9 mph W7.9 kmh W 19.0 mph30.6 kmh 29.54 in1000.3 mb 0.00 in0.0 mm 0.00 in0.0 mm 0.02 in0.5 mm
03:25 AM 48.2°F9.0°C 45.1°F7.3°C 89% 6.0 mph WSW9.7 kmh WSW 14.1 mph22.7 kmh 29.53 in1000.0 mb 0.01 in0.3 mm 0.06 in1.5 mm 0.02 in0.5 mm
03:35 AM 47.8°F8.8°C 44.8°F7.1°C 89% 2.9 mph SSW4.7 kmh SSW 8.9 mph14.3 kmh 29.53 in1000.0 mb 0.01 in0.3 mm 0.00 in0.0 mm 0.02 in0.5 mm
03:46 AM 47.7°F8.7°C 44.6°F7.0°C 89% 2.0 mph SSW3.2 kmh SSW 4.9 mph7.9 kmh 29.52 in999.7 mb 0.01 in0.3 mm 0.00 in0.0 mm 0.02 in0.5 mm
03:56 AM 47.5°F8.6°C 44.8°F7.1°C 90% 2.0 mph SW3.2 kmh SW 4.0 mph6.4 kmh 29.52 in999.7 mb 0.01 in0.3 mm 0.00 in0.0 mm 0.02 in0.5 mm
04:06 AM 47.1°F8.4°C 44.4°F6.9°C 90% Calm Calm 2.9 mph4.7 kmh 29.53 in1000.0 mb 0.01 in0.3 mm 0.00 in0.0 mm 0.02 in0.5 mm
04:16 AM 47.5°F8.6°C 45.0°F7.2°C 91% 2.0 mph WSW3.2 kmh WSW 6.9 mph11.1 kmh 29.52 in999.7 mb 0.02 in0.5 mm 0.06 in1.5 mm 0.04 in1.0 mm
04:26 AM 47.7°F8.7°C 45.1°F7.3°C 91% 2.9 mph WSW4.7 kmh WSW 6.0 mph9.7 kmh 29.52 in999.7 mb 0.02 in0.5 mm 0.00 in0.0 mm 0.04 in1.0 mm
04:36 AM 47.5°F8.6°C 45.0°F7.2°C 91% 2.0 mph S3.2 kmh S 6.0 mph9.7 kmh 29.52 in999.7 mb 0.02 in0.5 mm 0.00 in0.0 mm 0.04 in1.0 mm
04:46 AM 47.5°F8.6°C 45.0°F7.2°C 91% 2.0 mph W3.2 kmh W 12.1 mph19.5 kmh 29.52 in999.7 mb 0.06 in1.5 mm 0.24 in6.1 mm 0.08 in2.0 mm
04:57 AM 47.5°F8.6°C 45.0°F7.2°C 91% 2.0 mph SW3.2 kmh SW 8.9 mph14.3 kmh 29.52 in999.7 mb 0.06 in1.5 mm 0.00 in0.0 mm 0.08 in2.0 mm
05:07 AM 47.7°F8.7°C 45.1°F7.3°C 91% 0.9 mph WSW1.4 kmh WSW 4.0 mph6.4 kmh 29.52 in999.7 mb 0.05 in1.3 mm 0.00 in0.0 mm 0.08 in2.0 mm
05:17 AM 47.8°F8.8°C 45.3°F7.4°C 91% 2.9 mph NW4.7 kmh NW 6.0 mph9.7 kmh 29.52 in999.7 mb 0.04 in1.0 mm 0.00 in0.0 mm 0.08 in2.0 mm
05:27 AM 47.8°F8.8°C 45.3°F7.4°C 91% 0.9 mph SW1.4 kmh SW 4.0 mph6.4 kmh 29.52 in999.7 mb 0.05 in1.3 mm 0.06 in1.5 mm 0.09 in2.3 mm
05:37 AM 47.8°F8.8°C 45.3°F7.4°C 91% 2.0 mph WNW3.2 kmh WNW 11.0 mph17.7 kmh 29.52 in999.7 mb 0.07 in1.8 mm 0.12 in3.0 mm 0.11 in2.8 mm
05:47 AM 48.0°F8.9°C 45.5°F7.5°C 91% 4.0 mph SW6.4 kmh SW 10.1 mph16.3 kmh 29.52 in999.7 mb 0.04 in1.0 mm 0.00 in0.0 mm 0.12 in3.0 mm
05:57 AM 48.4°F9.1°C 45.9°F7.7°C 91% 4.9 mph W7.9 kmh W 13.0 mph20.9 kmh 29.53 in1000.0 mb 0.04 in1.0 mm 0.00 in0.0 mm 0.12 in3.0 mm
06:07 AM 48.7°F9.3°C 45.9°F7.7°C 90% 6.9 mph NW11.1 kmh NW 17.0 mph27.4 kmh 29.54 in1000.3 mb 0.04 in1.0 mm 0.00 in0.0 mm 0.12 in3.0 mm
06:17 AM 48.9°F9.4°C 45.9°F7.7°C 89% 10.1 mph NW16.3 kmh NW 21.0 mph33.8 kmh 29.54 in1000.3 mb 0.04 in1.0 mm 0.00 in0.0 mm 0.12 in3.0 mm
06:27 AM 48.4°F9.1°C 45.3°F7.4°C 89% 8.9 mph WNW14.3 kmh WNW 17.0 mph27.4 kmh 29.55 in1000.7 mb 0.05 in1.3 mm 0.06 in1.5 mm 0.13 in3.3 mm
06:37 AM 48.4°F9.1°C 45.3°F7.4°C 89% 6.9 mph NW11.1 kmh NW 17.9 mph28.8 kmh 29.55 in1000.7 mb 0.02 in0.5 mm 0.00 in0.0 mm 0.13 in3.3 mm
06:47 AM 48.7°F9.3°C 45.9°F7.7°C 90% 4.9 mph NW7.9 kmh NW 11.0 mph17.7 kmh 29.56 in1001.0 mb 0.02 in0.5 mm 0.00 in0.0 mm 0.13 in3.3 mm
06:57 AM 48.9°F9.4°C 46.0°F7.8°C 90% 6.0 mph WNW9.7 kmh WNW 14.1 mph22.7 kmh 29.56 in1001.0 mb 0.02 in0.5 mm 0.00 in0.0 mm 0.14 in3.6 mm
07:07 AM 48.9°F9.4°C 46.0°F7.8°C 90% 4.0 mph WNW6.4 kmh WNW 8.9 mph14.3 kmh 29.57 in1001.4 mb 0.02 in0.5 mm 0.00 in0.0 mm 0.14 in3.6 mm
07:17 AM 48.9°F9.4°C 46.0°F7.8°C 90% 4.0 mph W6.4 kmh W 8.9 mph14.3 kmh 29.57 in1001.4 mb 0.05 in1.3 mm 0.18 in4.6 mm 0.17 in4.3 mm
07:27 AM 48.9°F9.4°C 46.0°F7.8°C 90% 2.0 mph WNW3.2 kmh WNW 11.0 mph17.7 kmh 29.57 in1001.4 mb 0.03 in0.8 mm 0.00 in0.0 mm 0.17 in4.3 mm
07:37 AM 49.5°F9.7°C 46.6°F8.1°C 90% 4.0 mph WSW6.4 kmh WSW 8.1 mph13.0 kmh 29.57 in1001.4 mb 0.03 in0.8 mm 0.00 in0.0 mm 0.17 in4.3 mm
07:47 AM 50.0°F10.0°C 47.1°F8.4°C 90% 2.9 mph W4.7 kmh W 8.1 mph13.0 kmh 29.57 in1001.4 mb 0.04 in1.0 mm 0.06 in1.5 mm 0.17 in4.3 mm
07:57 AM 50.2°F10.1°C 47.1°F8.4°C 89% 6.0 mph W9.7 kmh W 17.0 mph27.4 kmh 29.58 in1001.7 mb 0.04 in1.0 mm 0.00 in0.0 mm 0.18 in4.6 mm
08:07 AM 49.3°F9.6°C 45.9°F7.7°C 88% 6.0 mph W9.7 kmh W 19.9 mph32.0 kmh 29.57 in1001.4 mb 0.04 in1.0 mm 0.00 in0.0 mm 0.18 in4.6 mm
08:17 AM 48.7°F9.3°C 45.3°F7.4°C 88% 2.9 mph SW4.7 kmh SW 10.1 mph16.3 kmh 29.58 in1001.7 mb 0.02 in0.5 mm 0.00 in0.0 mm 0.18 in4.6 mm
08:27 AM 48.7°F9.3°C 45.3°F7.4°C 88% 2.9 mph SW4.7 kmh SW 8.1 mph13.0 kmh 29.58 in1001.7 mb 0.02 in0.5 mm 0.00 in0.0 mm 0.18 in4.6 mm
08:37 AM 49.6°F9.8°C 46.2°F7.9°C 88% 2.9 mph SW4.7 kmh SW 6.0 mph9.7 kmh 29.59 in1002.0 mb 0.02 in0.5 mm 0.00 in0.0 mm 0.18 in4.6 mm
08:47 AM 52.0°F11.1°C 48.9°F9.4°C 89% 4.0 mph W6.4 kmh W 10.1 mph16.3 kmh 29.59 in1002.0 mb 0.01 in0.3 mm 0.00 in0.0 mm 0.18 in4.6 mm
08:57 AM 54.3°F12.4°C 48.9°F9.4°C 82% 6.0 mph NW9.7 kmh NW 17.9 mph28.8 kmh 29.59 in1002.0 mb 0.00 in0.0 mm 0.00 in0.0 mm 0.18 in4.6 mm
09:07 AM 54.9°F12.7°C 48.2°F9.0°C 78% 11.0 mph NNW17.7 kmh NNW 23.0 mph37.0 kmh 29.59 in1002.0 mb 0.00 in0.0 mm 0.00 in0.0 mm 0.19 in4.8 mm
09:17 AM 52.9°F11.6°C 45.9°F7.7°C 77% 12.1 mph NW19.5 kmh NW 19.0 mph30.6 kmh 29.60 in1002.4 mb 0.01 in0.3 mm 0.06 in1.5 mm 0.19 in4.8 mm
09:27 AM 51.8°F11.0°C 45.5°F7.5°C 79% 8.9 mph N14.3 kmh N 16.1 mph25.9 kmh 29.60 in1002.4 mb 0.01 in0.3 mm 0.00 in0.0 mm 0.19 in4.8 mm
09:37 AM 51.4°F10.8°C 45.9°F7.7°C 81% 6.0 mph NE9.7 kmh NE 14.1 mph22.7 kmh 29.61 in1002.7 mb 0.01 in0.3 mm 0.00 in0.0 mm 0.19 in4.8 mm
09:47 AM 51.1°F10.6°C 46.0°F7.8°C 83% 4.0 mph NNW6.4 kmh NNW 12.1 mph19.5 kmh 29.62 in1003.0 mb 0.02 in0.5 mm 0.06 in1.5 mm 0.20 in5.1 mm
09:57 AM 50.4°F10.2°C 46.0°F7.8°C 85% 2.9 mph SSW4.7 kmh SSW 8.9 mph14.3 kmh 29.62 in1003.0 mb 0.02 in0.5 mm 0.00 in0.0 mm 0.20 in5.1 mm
10:07 AM 50.2°F10.1°C 46.4°F8.0°C 87% 2.9 mph SW4.7 kmh SW 8.1 mph13.0 kmh 29.62 in1003.0 mb 0.01 in0.3 mm 0.00 in0.0 mm 0.20 in5.1 mm
10:17 AM 49.8°F9.9°C 46.0°F7.8°C 87% 2.0 mph SW3.2 kmh SW 4.9 mph7.9 kmh 29.62 in1003.0 mb 0.01 in0.3 mm 0.00 in0.0 mm 0.20 in5.1 mm
10:27 AM 50.0°F10.0°C 46.6°F8.1°C 88% 2.9 mph S4.7 kmh S 6.0 mph9.7 kmh 29.63 in1003.4 mb 0.01 in0.3 mm 0.00 in0.0 mm 0.20 in5.1 mm
10:37 AM 51.1°F10.6°C 48.0°F8.9°C 89% 2.9 mph SE4.7 kmh SE 6.0 mph9.7 kmh 29.63 in1003.4 mb 0.01 in0.3 mm 0.00 in0.0 mm 0.20 in5.1 mm
10:47 AM 52.0°F11.1°C 48.6°F9.2°C 88% 4.9 mph SSE7.9 kmh SSE 10.1 mph16.3 kmh 29.63 in1003.4 mb 0.00 in0.0 mm 0.00 in0.0 mm 0.20 in5.1 mm
10:57 AM 51.6°F10.9°C 47.3°F8.5°C 85% 8.1 mph WSW13.0 kmh WSW 25.1 mph40.4 kmh 29.64 in1003.7 mb 0.03 in0.8 mm 0.18 in4.6 mm 0.23 in5.8 mm
11:07 AM 49.3°F9.6°C 45.0°F7.2°C 85% 6.0 mph SW9.7 kmh SW 14.1 mph22.7 kmh 29.64 in1003.7 mb 0.04 in1.0 mm 0.01 in0.3 mm 0.24 in6.1 mm
11:18 AM 50.0°F10.0°C 46.6°F8.1°C 88% 0.9 mph SW1.4 kmh SW 2.9 mph4.7 kmh 29.64 in1003.7 mb 0.04 in1.0 mm 0.00 in0.0 mm 0.24 in6.1 mm
11:28 AM 52.5°F11.4°C 49.1°F9.5°C 88% 0.9 mph SE1.4 kmh SE 4.0 mph6.4 kmh 29.63 in1003.4 mb 0.04 in1.0 mm 0.00 in0.0 mm 0.24 in6.1 mm
11:38 AM 53.8°F12.1°C 49.5°F9.7°C 85% 2.0 mph WSW3.2 kmh WSW 8.9 mph14.3 kmh 29.63 in1003.4 mb 0.04 in1.0 mm 0.00 in0.0 mm 0.24 in6.1 mm
11:48 AM 54.9°F12.7°C 49.1°F9.5°C 81% 4.0 mph WNW6.4 kmh WNW 8.1 mph13.0 kmh 29.63 in1003.4 mb 0.04 in1.0 mm 0.00 in0.0 mm 0.24 in6.1 mm
11:58 AM 54.3°F12.4°C 48.6°F9.2°C 81% 8.1 mph WSW13.0 kmh WSW 19.0 mph30.6 kmh 29.63 in1003.4 mb 0.02 in0.5 mm 0.00 in0.0 mm 0.24 in6.1 mm
12:08 PM 56.1°F13.4°C 48.0°F8.9°C 74% 8.1 mph SW13.0 kmh SW 16.1 mph25.9 kmh 29.62 in1003.0 mb 0.01 in0.3 mm 0.00 in0.0 mm 0.24 in6.1 mm
12:18 PM 58.1°F14.5°C 48.7°F9.3°C 71% 8.9 mph W14.3 kmh W 19.9 mph32.0 kmh 29.62 in1003.0 mb 0.01 in0.3 mm 0.00 in0.0 mm 0.24 in6.1 mm
12:28 PM 57.6°F14.2°C 46.8°F8.2°C 67% 11.0 mph WSW17.7 kmh WSW 19.0 mph30.6 kmh 29.62 in1003.0 mb 0.01 in0.3 mm 0.00 in0.0 mm 0.24 in6.1 mm
12:38 PM 56.3°F13.5°C 48.2°F9.0°C 74% 8.9 mph WNW14.3 kmh WNW 19.0 mph30.6 kmh 29.62 in1003.0 mb 0.01 in0.3 mm 0.00 in0.0 mm 0.24 in6.1 mm
12:48 PM 56.5°F13.6°C 47.1°F8.4°C 71% 6.0 mph WNW9.7 kmh WNW 17.0 mph27.4 kmh 29.62 in1003.0 mb 0.01 in0.3 mm 0.00 in0.0 mm 0.24 in6.1 mm
12:58 PM 55.2°F12.9°C 46.0°F7.8°C 71% 8.9 mph SW14.3 kmh SW 16.1 mph25.9 kmh 29.63 in1003.4 mb 0.00 in0.0 mm 0.00 in0.0 mm 0.24 in6.1 mm
01:08 PM 54.1°F12.3°C 45.0°F7.2°C 71% 8.9 mph W14.3 kmh W 17.0 mph27.4 kmh 29.64 in1003.7 mb 0.00 in0.0 mm 0.00 in0.0 mm 0.24 in6.1 mm
01:18 PM 53.1°F11.7°C 44.6°F7.0°C 73% 8.1 mph SW13.0 kmh SW 15.0 mph24.1 kmh 29.64 in1003.7 mb 0.00 in0.0 mm 0.00 in0.0 mm 0.24 in6.1 mm
01:28 PM 52.9°F11.6°C 45.5°F7.5°C 76% 6.9 mph SW11.1 kmh SW 14.1 mph22.7 kmh 29.64 in1003.7 mb 0.00 in0.0 mm 0.00 in0.0 mm 0.24 in6.1 mm
01:38 PM 53.1°F11.7°C 46.0°F7.8°C 77% 4.9 mph SW7.9 kmh SW 11.0 mph17.7 kmh 29.65 in1004.1 mb 0.00 in0.0 mm 0.00 in0.0 mm 0.24 in6.1 mm
01:48 PM 53.4°F11.9°C 46.0°F7.8°C 76% 4.0 mph WSW6.4 kmh WSW 11.0 mph17.7 kmh 29.65 in1004.1 mb 0.00 in0.0 mm 0.00 in0.0 mm 0.24 in6.1 mm
01:58 PM 54.0°F12.2°C 46.6°F8.1°C 76% 4.0 mph SSE6.4 kmh SSE 11.0 mph17.7 kmh 29.64 in1003.7 mb 0.00 in0.0 mm 0.00 in0.0 mm 0.24 in6.1 mm
02:08 PM 55.2°F12.9°C 46.0°F7.8°C 71% 8.1 mph WNW13.0 kmh WNW 19.0 mph30.6 kmh 29.64 in1003.7 mb 0.00 in0.0 mm 0.00 in0.0 mm 0.24 in6.1 mm
02:18 PM 56.8°F13.8°C 46.0°F7.8°C 67% 8.9 mph SW14.3 kmh SW 21.9 mph35.2 kmh 29.65 in1004.1 mb 0.00 in0.0 mm 0.00 in0.0 mm 0.24 in6.1 mm
02:28 PM 56.5°F13.6°C 45.3°F7.4°C 66% 11.0 mph SW17.7 kmh SW 19.9 mph32.0 kmh 29.64 in1003.7 mb 0.00 in0.0 mm 0.00 in0.0 mm 0.24 in6.1 mm
02:38 PM 56.7°F13.7°C 46.2°F7.9°C 68% 8.9 mph WSW14.3 kmh WSW 21.9 mph35.2 kmh 29.64 in1003.7 mb 0.00 in0.0 mm 0.00 in0.0 mm 0.24 in6.1 mm
02:48 PM 56.5°F13.6°C 45.3°F7.4°C 66% 10.1 mph WSW16.3 kmh WSW 21.0 mph33.8 kmh 29.64 in1003.7 mb 0.00 in0.0 mm 0.00 in0.0 mm 0.24 in6.1 mm
02:58 PM 57.2°F14.0°C 45.9°F7.7°C 66% 11.0 mph W17.7 kmh W 19.0 mph30.6 kmh 29.64 in1003.7 mb 0.00 in0.0 mm 0.00 in0.0 mm 0.24 in6.1 mm
03:08 PM 56.3°F13.5°C 44.6°F7.0°C 65% 11.0 mph W17.7 kmh W 19.9 mph32.0 kmh 29.64 in1003.7 mb 0.00 in0.0 mm 0.00 in0.0 mm 0.24 in6.1 mm
03:18 PM 57.4°F14.1°C 45.7°F7.6°C 65% 6.9 mph WSW11.1 kmh WSW 19.0 mph30.6 kmh 29.64 in1003.7 mb 0.00 in0.0 mm 0.00 in0.0 mm 0.24 in6.1 mm
03:28 PM 55.9°F13.3°C 45.1°F7.3°C 67% 10.1 mph SW16.3 kmh SW 21.0 mph33.8 kmh 29.65 in1004.1 mb 0.00 in0.0 mm 0.00 in0.0 mm 0.24 in6.1 mm
03:38 PM 56.8°F13.8°C 47.1°F8.4°C 70% 6.9 mph WNW11.1 kmh WNW 15.0 mph24.1 kmh 29.64 in1003.7 mb 0.00 in0.0 mm 0.00 in0.0 mm 0.24 in6.1 mm
03:48 PM 58.1°F14.5°C 46.4°F8.0°C 65% 11.0 mph NW17.7 kmh NW 23.0 mph37.0 kmh 29.64 in1003.7 mb 0.00 in0.0 mm 0.00 in0.0 mm 0.24 in6.1 mm
03:58 PM 58.5°F14.7°C 45.9°F7.7°C 63% 8.9 mph NW14.3 kmh NW 17.0 mph27.4 kmh 29.64 in1003.7 mb 0.00 in0.0 mm 0.00 in0.0 mm 0.24 in6.1 mm
04:08 PM 57.6°F14.2°C 45.5°F7.5°C 64% 8.9 mph WNW14.3 kmh WNW 19.9 mph32.0 kmh 29.65 in1004.1 mb 0.00 in0.0 mm 0.00 in0.0 mm 0.24 in6.1 mm
04:18 PM 57.4°F14.1°C 45.3°F7.4°C 64% 6.9 mph WNW11.1 kmh WNW 19.0 mph30.6 kmh 29.65 in1004.1 mb 0.00 in0.0 mm 0.00 in0.0 mm 0.24 in6.1 mm
04:28 PM 57.2°F14.0°C 45.9°F7.7°C 66% 8.9 mph NW14.3 kmh NW 23.9 mph38.5 kmh 29.65 in1004.1 mb 0.00 in0.0 mm 0.00 in0.0 mm 0.24 in6.1 mm
04:38 PM 57.0°F13.9°C 44.6°F7.0°C 63% 8.9 mph WSW14.3 kmh WSW 19.9 mph32.0 kmh 29.65 in1004.1 mb 0.00 in0.0 mm 0.00 in0.0 mm 0.24 in6.1 mm
04:48 PM 57.0°F13.9°C 45.3°F7.4°C 65% 8.9 mph WSW14.3 kmh WSW 19.9 mph32.0 kmh 29.65 in1004.1 mb 0.00 in0.0 mm 0.00 in0.0 mm 0.24 in6.1 mm
04:58 PM 57.0°F13.9°C 45.0°F7.2°C 64% 8.9 mph W14.3 kmh W 19.0 mph30.6 kmh 29.66 in1004.4 mb 0.00 in0.0 mm 0.00 in0.0 mm 0.24 in6.1 mm
05:08 PM 56.5°F13.6°C 44.8°F7.1°C 65% 10.1 mph W16.3 kmh W 17.9 mph28.8 kmh 29.65 in1004.1 mb 0.00 in0.0 mm 0.00 in0.0 mm 0.24 in6.1 mm
05:18 PM 55.2°F12.9°C 44.1°F6.7°C 66% 8.9 mph WSW14.3 kmh WSW 17.0 mph27.4 kmh 29.66 in1004.4 mb 0.00 in0.0 mm 0.00 in0.0 mm 0.24 in6.1 mm
05:28 PM 54.1°F12.3°C 43.9°F6.6°C 68% 6.0 mph SSW9.7 kmh SSW 15.0 mph24.1 kmh 29.66 in1004.4 mb 0.00 in0.0 mm 0.00 in0.0 mm 0.24 in6.1 mm
05:38 PM 55.0°F12.8°C 46.2°F7.9°C 72% 4.0 mph NW6.4 kmh NW 15.0 mph24.1 kmh 29.66 in1004.4 mb 0.00 in0.0 mm 0.00 in0.0 mm 0.24 in6.1 mm
05:48 PM 55.9°F13.3°C 45.5°F7.5°C 68% 6.9 mph WSW11.1 kmh WSW 17.0 mph27.4 kmh 29.66 in1004.4 mb 0.00 in0.0 mm 0.00 in0.0 mm 0.24 in6.1 mm
05:58 PM 55.9°F13.3°C 44.4°F6.9°C 65% 8.9 mph W14.3 kmh W 19.9 mph32.0 kmh 29.67 in1004.7 mb 0.00 in0.0 mm 0.00 in0.0 mm 0.24 in6.1 mm
06:08 PM 55.4°F13.0°C 44.2°F6.8°C 66% 6.9 mph WSW11.1 kmh WSW 19.0 mph30.6 kmh 29.67 in1004.7 mb 0.00 in0.0 mm 0.00 in0.0 mm 0.24 in6.1 mm
06:18 PM 55.2°F12.9°C 44.4°F6.9°C 67% 4.9 mph W7.9 kmh W 12.1 mph19.5 kmh 29.67 in1004.7 mb 0.00 in0.0 mm 0.00 in0.0 mm 0.24 in6.1 mm
06:28 PM 54.5°F12.5°C 43.3°F6.3°C 66% 6.9 mph SW11.1 kmh SW 15.0 mph24.1 kmh 29.67 in1004.7 mb 0.00 in0.0 mm 0.00 in0.0 mm 0.24 in6.1 mm
06:38 PM 54.0°F12.2°C 43.7°F6.5°C 68% 6.0 mph WSW9.7 kmh WSW 15.0 mph24.1 kmh 29.67 in1004.7 mb 0.00 in0.0 mm 0.00 in0.0 mm 0.24 in6.1 mm
06:48 PM 53.8°F12.1°C 43.9°F6.6°C 69% 4.9 mph WSW7.9 kmh WSW 11.0 mph17.7 kmh 29.67 in1004.7 mb 0.00 in0.0 mm 0.00 in0.0 mm 0.24 in6.1 mm
06:58 PM 53.2°F11.8°C 43.7°F6.5°C 70% 4.9 mph W7.9 kmh W 10.1 mph16.3 kmh 29.67 in1004.7 mb 0.00 in0.0 mm 0.00 in0.0 mm 0.24 in6.1 mm
07:08 PM 53.1°F11.7°C 43.9°F6.6°C 71% 4.0 mph WSW6.4 kmh WSW 8.1 mph13.0 kmh 29.67 in1004.7 mb 0.00 in0.0 mm 0.00 in0.0 mm 0.24 in6.1 mm
07:18 PM 52.9°F11.6°C 44.1°F6.7°C 72% 4.0 mph WSW6.4 kmh WSW 10.1 mph16.3 kmh 29.67 in1004.7 mb 0.00 in0.0 mm 0.00 in0.0 mm 0.24 in6.1 mm
07:28 PM 52.5°F11.4°C 43.7°F6.5°C 72% 2.9 mph SW4.7 kmh SW 6.9 mph11.1 kmh 29.67 in1004.7 mb 0.00 in0.0 mm 0.00 in0.0 mm 0.24 in6.1 mm
07:38 PM 52.2°F11.2°C 43.7°F6.5°C 73% 2.0 mph SW3.2 kmh SW 4.0 mph6.4 kmh 29.67 in1004.7 mb 0.00 in0.0 mm 0.00 in0.0 mm 0.24 in6.1 mm
07:48 PM 52.0°F11.1°C 43.9°F6.6°C 74% 0.9 mph SSW1.4 kmh SSW 2.9 mph4.7 kmh 29.67 in1004.7 mb 0.00 in0.0 mm 0.00 in0.0 mm 0.24 in6.1 mm
07:58 PM 51.6°F10.9°C 44.2°F6.8°C 76% 2.0 mph S3.2 kmh S 4.9 mph7.9 kmh 29.67 in1004.7 mb 0.00 in0.0 mm 0.00 in0.0 mm 0.24 in6.1 mm
08:08 PM 51.4°F10.8°C 44.4°F6.9°C 77% 0.9 mph SSW1.4 kmh SSW 6.0 mph9.7 kmh 29.69 in1005.4 mb 0.00 in0.0 mm 0.00 in0.0 mm 0.24 in6.1 mm
08:18 PM 51.1°F10.6°C 44.4°F6.9°C 78% 2.0 mph S3.2 kmh S 6.9 mph11.1 kmh 29.68 in1005.1 mb 0.00 in0.0 mm 0.00 in0.0 mm 0.24 in6.1 mm
08:28 PM 50.9°F10.5°C 45.0°F7.2°C 80% 0.9 mph SW1.4 kmh SW 4.0 mph6.4 kmh 29.69 in1005.4 mb 0.00 in0.0 mm 0.00 in0.0 mm 0.24 in6.1 mm
08:38 PM 50.5°F10.3°C 45.0°F7.2°C 81% 0.9 mph SW1.4 kmh SW 2.9 mph4.7 kmh 29.69 in1005.4 mb 0.00 in0.0 mm 0.00 in0.0 mm 0.24 in6.1 mm
08:48 PM 50.2°F10.1°C 45.0°F7.2°C 82% 0.9 mph SW1.4 kmh SW 2.9 mph4.7 kmh 29.69 in1005.4 mb 0.00 in0.0 mm 0.00 in0.0 mm 0.24 in6.1 mm
08:58 PM 49.8°F9.9°C 45.1°F7.3°C 84% 2.0 mph SE3.2 kmh SE 4.0 mph6.4 kmh 29.69 in1005.4 mb 0.00 in0.0 mm 0.00 in0.0 mm 0.24 in6.1 mm
09:08 PM 49.6°F9.8°C 45.0°F7.2°C 84% 2.0 mph SE3.2 kmh SE 4.9 mph7.9 kmh 29.69 in1005.4 mb 0.00 in0.0 mm 0.00 in0.0 mm 0.24 in6.1 mm
09:18 PM 49.6°F9.8°C 45.3°F7.4°C 85% 2.0 mph SE3.2 kmh SE 4.0 mph6.4 kmh 29.69 in1005.4 mb 0.00 in0.0 mm 0.00 in0.0 mm 0.24 in6.1 mm
09:29 PM 49.6°F9.8°C 45.3°F7.4°C 85% 2.0 mph SE3.2 kmh SE 4.0 mph6.4 kmh 29.70 in1005.8 mb 0.00 in0.0 mm 0.00 in0.0 mm 0.24 in6.1 mm
09:39 PM 49.5°F9.7°C 45.1°F7.3°C 85% 0.9 mph SE1.4 kmh SE 2.9 mph4.7 kmh 29.69 in1005.4 mb 0.00 in0.0 mm 0.00 in0.0 mm 0.24 in6.1 mm
09:49 PM 49.5°F9.7°C 45.5°F7.5°C 86% 0.9 mph ESE1.4 kmh ESE 2.9 mph4.7 kmh 29.69 in1005.4 mb 0.00 in0.0 mm 0.00 in0.0 mm 0.24 in6.1 mm
09:59 PM 49.6°F9.8°C 45.3°F7.4°C 85% 0.9 mph ESE1.4 kmh ESE 2.9 mph4.7 kmh 29.69 in1005.4 mb 0.00 in0.0 mm 0.00 in0.0 mm 0.24 in6.1 mm
10:09 PM 50.2°F10.1°C 45.9°F7.7°C 85% 0.9 mph S1.4 kmh S 4.0 mph6.4 kmh 29.69 in1005.4 mb 0.00 in0.0 mm 0.00 in0.0 mm 0.24 in6.1 mm
10:19 PM 50.5°F10.3°C 45.5°F7.5°C 83% 0.9 mph S1.4 kmh S 4.9 mph7.9 kmh 29.69 in1005.4 mb 0.00 in0.0 mm 0.00 in0.0 mm 0.24 in6.1 mm
10:29 PM 50.7°F10.4°C 45.5°F7.5°C 82% 2.9 mph SW4.7 kmh SW 10.1 mph16.3 kmh 29.69 in1005.4 mb 0.00 in0.0 mm 0.00 in0.0 mm 0.24 in6.1 mm
10:39 PM 50.9°F10.5°C 45.9°F7.7°C 83% 2.9 mph SW4.7 kmh SW 8.9 mph14.3 kmh 29.69 in1005.4 mb 0.00 in0.0 mm 0.00 in0.0 mm 0.24 in6.1 mm
10:49 PM 50.7°F10.4°C 46.0°F7.8°C 84% 2.0 mph E3.2 kmh E 4.0 mph6.4 kmh 29.68 in1005.1 mb 0.01 in0.3 mm 0.06 in1.5 mm 0.25 in6.4 mm
10:59 PM 50.4°F10.2°C 46.0°F7.8°C 85% 2.0 mph S3.2 kmh S 6.9 mph11.1 kmh 29.68 in1005.1 mb 0.01 in0.3 mm 0.00 in0.0 mm 0.25 in6.4 mm
11:09 PM 50.2°F10.1°C 46.4°F8.0°C 87% 2.9 mph SSE4.7 kmh SSE 6.9 mph11.1 kmh 29.67 in1004.7 mb 0.01 in0.3 mm 0.00 in0.0 mm 0.23 in5.8 mm
11:19 PM 50.2°F10.1°C 46.4°F8.0°C 87% 2.0 mph WSW3.2 kmh WSW 6.9 mph11.1 kmh 29.67 in1004.7 mb 0.01 in0.3 mm 0.00 in0.0 mm 0.23 in5.8 mm
11:29 PM 50.0°F10.0°C 46.2°F7.9°C 87% 0.9 mph E1.4 kmh E 6.9 mph11.1 kmh 29.67 in1004.7 mb 0.01 in0.3 mm 0.00 in0.0 mm 0.23 in5.8 mm
11:39 PM 50.2°F10.1°C 46.8°F8.2°C 88% 2.0 mph S3.2 kmh S 6.9 mph11.1 kmh 29.67 in1004.7 mb 0.01 in0.3 mm 0.00 in0.0 mm 0.23 in5.8 mm
11:49 PM 50.0°F10.0°C 46.6°F8.1°C 88% 2.0 mph SE3.2 kmh SE 4.0 mph6.4 kmh 29.66 in1004.4 mb 0.01 in0.3 mm 0.00 in0.0 mm 0.01 in0.3 mm
11:59 PM 49.8°F9.9°C 46.4°F8.0°C 88% 2.0 mph SE3.2 kmh SE 6.0 mph9.7 kmh 29.65 in1004.1 mb 0.01 in0.3 mm 0.00 in0.0 mm 0.01 in0.3 mm